Kaimon Galaxy — V7XH3 — position and weather

sailwx.info

Track history (hours):
 
Tides and Currents Weather Stations Pressure Air Temp Water Temp Dewpoint Dewpoint Depression Visibility Wind Speed Wind Dir Waves Ship Positions

Kaimon Galaxy

Last reported at 2018-Jun-17 15:25 UTC. Time now 2018-Jun-21 01:02 UTC.
Position N 01°21' E 104°24'.

Length 159 m; draft 10.3 m.

Type: Ship (hazmat cat B). MMSI: 538004480.

Date/timePositionNaut miles runAvg speedWind from/ knotsBaromVisibWave heightAir tempDewpointWater temp
2018-Jun-17 15:25N 01°21' E 104°24'613.2
2018-Jun-17 14:59N 01°18' E 104°19'613.0
2018-Jun-17 14:30N 01°17' E 104°13'713.4
2018-Jun-17 14:00N 01°16' E 104°06'713.2
2018-Jun-17 13:30N 01°14' E 103°60'713.3
2018-Jun-17 12:59N 01°12' E 103°53'612.5
2018-Jun-17 12:31N 01°09' E 103°48'612.8
2018-Jun-17 12:00N 01°05' E 103°43'612.5
2018-Jun-17 11:30N 01°04' E 103°37'713.3
2018-Jun-17 11:00N 01°08' E 103°32'712.9
2018-Jun-17 10:29N 01°11' E 103°38'3 7.3
2018-Jun-17 10:00N 01°12' E 103°41'0 0.3
2018-Jun-17 09:22N 01°11' E 103°41'0 0.1
2018-Jun-17 08:49N 01°11' E 103°41'0 0.0
2018-Jun-17 08:25N 01°11' E 103°41'0 0.0
2018-Jun-17 07:36N 01°11' E 103°41'0 0.0
2018-Jun-17 07:13N 01°11' E 103°41'0 0.0
2018-Jun-17 06:58N 01°12' E 103°41'0 0.0
2018-Jun-17 06:25N 01°11' E 103°41'0 0.0
2018-Jun-17 05:52N 01°11' E 103°41'0 0.0
2018-Jun-17 05:30N 01°11' E 103°41'0 0.0
2018-Jun-17 04:59N 01°11' E 103°41'0 0.0
2018-Jun-17 04:25N 01°11' E 103°41'0 0.0
2018-Jun-17 03:58N 01°11' E 103°41'0 0.0
2018-Jun-17 03:25N 01°11' E 103°41'0 0.2
2018-Jun-17 02:57N 01°12' E 103°41'0 0.4
2018-Jun-17 02:24N 01°11' E 103°41'0 1.2
2018-Jun-17 02:00N 01°12' E 103°42'2 4.6
2018-Jun-17 01:30N 01°12' E 103°39'3 6.6
2018-Jun-17 01:00N 01°13' E 103°36'3 5.1
2018-Jun-17 00:30N 01°11' E 103°34'3 6.4
2018-Jun-17 00:00N 01°10' E 103°31'4 7.3
2018-Jun-16 23:30N 01°11' E 103°27'610.0
2018-Jun-16 22:56N 01°13' E 103°22'711.3
2018-Jun-16 22:17N 01°18' E 103°16'411.5
2018-Jun-16 21:58N 01°20' E 103°14'  
Track history (hours):
 
Tides and Currents Weather Stations Pressure Air Temp Water Temp Dewpoint Dewpoint Depression Visibility Wind Speed Wind Dir Waves Ship Positions

Kaimon Galaxy

Last reported at 2018-Jun-17 15:25 UTC. Time now 2018-Jun-21 01:02 UTC.
Position N 01°21' E 104°24'.

Length 159 m; draft 10.3 m.

Type: Ship (hazmat cat B). MMSI: 538004480.

Date/timePositionNaut miles runAvg speedWind from/ knotsBaromVisibWave heightAir tempDewpointWater temp
2018-Jun-17 15:25N 01°21' E 104°24'613.2
2018-Jun-17 14:59N 01°18' E 104°19'613.0
2018-Jun-17 14:30N 01°17' E 104°13'713.4
2018-Jun-17 14:00N 01°16' E 104°06'713.2
2018-Jun-17 13:30N 01°14' E 103°60'713.3
2018-Jun-17 12:59N 01°12' E 103°53'612.5
2018-Jun-17 12:31N 01°09' E 103°48'612.8
2018-Jun-17 12:00N 01°05' E 103°43'612.5
2018-Jun-17 11:30N 01°04' E 103°37'713.3
2018-Jun-17 11:00N 01°08' E 103°32'712.9
2018-Jun-17 10:29N 01°11' E 103°38'3 7.3
2018-Jun-17 10:00N 01°12' E 103°41'0 0.3
2018-Jun-17 09:22N 01°11' E 103°41'0 0.1
2018-Jun-17 08:49N 01°11' E 103°41'0 0.0
2018-Jun-17 08:25N 01°11' E 103°41'0 0.0
2018-Jun-17 07:36N 01°11' E 103°41'0 0.0
2018-Jun-17 07:13N 01°11' E 103°41'0 0.0
2018-Jun-17 06:58N 01°12' E 103°41'0 0.0
2018-Jun-17 06:25N 01°11' E 103°41'0 0.0
2018-Jun-17 05:52N 01°11' E 103°41'0 0.0
2018-Jun-17 05:30N 01°11' E 103°41'0 0.0
2018-Jun-17 04:59N 01°11' E 103°41'0 0.0
2018-Jun-17 04:25N 01°11' E 103°41'0 0.0
2018-Jun-17 03:58N 01°11' E 103°41'0 0.0
2018-Jun-17 03:25N 01°11' E 103°41'0 0.2
2018-Jun-17 02:57N 01°12' E 103°41'0 0.4
2018-Jun-17 02:24N 01°11' E 103°41'0 1.2
2018-Jun-17 02:00N 01°12' E 103°42'2 4.6
2018-Jun-17 01:30N 01°12' E 103°39'3 6.6
2018-Jun-17 01:00N 01°13' E 103°36'3 5.1
2018-Jun-17 00:30N 01°11' E 103°34'3 6.4
2018-Jun-17 00:00N 01°10' E 103°31'4 7.3
2018-Jun-16 23:30N 01°11' E 103°27'610.0
2018-Jun-16 22:56N 01°13' E 103°22'711.3
2018-Jun-16 22:17N 01°18' E 103°16'411.5
2018-Jun-16 21:58N 01°20' E 103°14'  

Dump ship's entire track history